createdAt,value
2022-12-13T00:01:31.969Z,17.30
2022-12-13T00:04:01.676Z,17.10
2022-12-13T00:06:29.271Z,17.00
2022-12-13T00:08:55.871Z,17.20
2022-12-13T00:11:22.800Z,15.90
2022-12-13T00:13:49.580Z,16.93
2022-12-13T00:16:24.313Z,16.83
2022-12-13T00:18:55.410Z,17.13
2022-12-13T00:21:26.470Z,16.77
2022-12-13T00:23:53.415Z,18.00
2022-12-13T00:26:25.780Z,18.67
2022-12-13T00:28:54.029Z,16.33
2022-12-13T00:34:10.327Z,17.20
2022-12-13T00:36:37.081Z,17.50
2022-12-13T00:39:04.010Z,16.57
2022-12-13T00:41:33.819Z,16.70
2022-12-13T00:44:02.257Z,16.40
2022-12-13T00:46:29.703Z,16.00
2022-12-13T00:48:59.061Z,16.93
2022-12-13T00:51:27.442Z,17.00
2022-12-13T00:53:54.154Z,17.07
2022-12-13T00:56:25.489Z,16.90
2022-12-13T00:58:53.029Z,16.10
2022-12-13T01:01:27.561Z,17.13
2022-12-13T01:03:56.677Z,16.90
2022-12-13T01:06:44.891Z,16.90
2022-12-13T01:09:20.812Z,18.07
2022-12-13T01:11:48.864Z,16.67
2022-12-13T01:14:17.596Z,17.07
2022-12-13T01:16:44.791Z,17.00
2022-12-13T01:19:11.543Z,16.87
2022-12-13T01:21:38.391Z,17.03
2022-12-13T01:24:06.890Z,17.00
2022-12-13T01:26:34.898Z,16.33
2022-12-13T01:29:05.550Z,16.93
2022-12-13T01:31:33.936Z,17.27
2022-12-13T01:34:00.625Z,17.03
2022-12-13T01:36:28.431Z,17.00
2022-12-13T01:38:58.592Z,16.63
2022-12-13T01:41:27.180Z,17.37
2022-12-13T01:44:18.255Z,16.20
2022-12-13T01:46:44.854Z,16.77
2022-12-13T01:49:19.569Z,16.63
2022-12-13T01:51:52.803Z,16.23
2022-12-13T01:54:25.236Z,17.43
2022-12-13T01:57:03.349Z,17.90
2022-12-13T01:59:30.086Z,17.93
2022-12-13T02:02:00.842Z,19.03
2022-12-13T02:04:43.914Z,17.40
2022-12-13T02:07:22.924Z,18.00
2022-12-13T02:09:57.378Z,19.83
2022-12-13T02:12:30.379Z,18.57
2022-12-13T02:15:01.235Z,18.67
2022-12-13T02:17:44.817Z,19.23
2022-12-13T02:20:40.637Z,20.60
2022-12-13T02:23:32.490Z,18.87
2022-12-13T02:26:13.472Z,19.20
2022-12-13T02:29:01.666Z,21.77
2022-12-13T02:32:05.806Z,18.67
2022-12-13T02:34:39.883Z,18.43
2022-12-13T02:37:22.577Z,18.43
2022-12-13T02:39:54.282Z,19.57
2022-12-13T02:42:35.328Z,17.83
2022-12-13T02:45:20.106Z,18.60
2022-12-13T02:47:49.729Z,19.13
2022-12-13T02:50:16.906Z,18.40
2022-12-13T02:52:46.623Z,17.27
2022-12-13T02:55:16.609Z,17.60
2022-12-13T02:57:45.432Z,18.03
2022-12-13T03:00:21.719Z,15.90
2022-12-13T03:03:06.693Z,15.70
2022-12-13T03:06:00.978Z,15.77
2022-12-13T03:08:34.738Z,17.17
2022-12-13T03:11:18.893Z,16.07
2022-12-13T03:13:56.584Z,16.63
2022-12-13T03:16:31.186Z,14.83
2022-12-13T03:19:00.762Z,16.30
2022-12-13T03:21:28.280Z,16.33
2022-12-13T03:23:54.964Z,15.80
2022-12-13T03:26:25.187Z,15.83
2022-12-13T03:28:53.071Z,14.93
2022-12-13T03:31:19.995Z,14.87
2022-12-13T03:33:46.895Z,15.50
2022-12-13T03:36:14.055Z,15.10
2022-12-13T03:38:41.135Z,15.60
2022-12-13T03:41:13.875Z,15.13
2022-12-13T03:43:40.654Z,15.63
2022-12-13T03:46:08.378Z,15.03
2022-12-13T03:48:35.079Z,14.43
2022-12-13T03:51:02.794Z,15.20
2022-12-13T03:53:33.742Z,15.97
2022-12-13T03:56:03.753Z,14.87
2022-12-13T03:58:36.616Z,15.73
2022-12-13T04:01:15.857Z,14.13
2022-12-13T04:03:44.593Z,15.50
2022-12-13T04:06:11.830Z,15.30
2022-12-13T04:08:39.184Z,15.33
2022-12-13T04:11:25.176Z,15.00
2022-12-13T04:13:55.399Z,14.77
2022-12-13T04:16:23.112Z,15.77
2022-12-13T04:18:50.406Z,15.40
2022-12-13T04:21:17.019Z,14.37
2022-12-13T04:23:43.669Z,14.03
2022-12-13T04:26:10.406Z,14.67
2022-12-13T04:28:38.218Z,13.57
2022-12-13T04:31:05.081Z,14.50
2022-12-13T04:33:32.823Z,14.00
2022-12-13T04:35:59.947Z,13.50
2022-12-13T04:38:26.722Z,16.17
2022-12-13T04:40:53.337Z,15.97
2022-12-13T04:43:19.909Z,16.90
2022-12-13T04:45:46.596Z,15.13
2022-12-13T04:48:13.802Z,15.40
2022-12-13T04:51:01.266Z,14.53
2022-12-13T04:53:30.013Z,14.17
2022-12-13T04:55:56.734Z,14.33
2022-12-13T04:58:23.375Z,14.70
2022-12-13T05:00:50.093Z,16.07
2022-12-13T05:03:16.692Z,14.93
2022-12-13T05:05:43.302Z,16.07
2022-12-13T05:08:10.013Z,14.07
2022-12-13T05:10:38.273Z,15.17
2022-12-13T05:13:05.457Z,14.40
2022-12-13T05:15:32.368Z,15.50
2022-12-13T05:18:01.831Z,15.73
2022-12-13T05:20:38.447Z,14.53
2022-12-13T05:23:05.009Z,14.50
2022-12-13T05:25:33.347Z,14.13
2022-12-13T05:27:59.938Z,14.53
2022-12-13T05:30:26.546Z,14.47
2022-12-13T05:32:53.105Z,15.23
2022-12-13T05:35:22.501Z,15.03
2022-12-13T05:37:53.673Z,14.67
2022-12-13T05:40:26.693Z,15.10
2022-12-13T05:43:01.380Z,14.93
2022-12-13T05:45:31.124Z,13.77
2022-12-13T05:47:58.244Z,14.33
2022-12-13T05:50:25.676Z,15.40
2022-12-13T05:52:52.523Z,14.93
2022-12-13T05:55:19.915Z,14.13
2022-12-13T05:57:50.427Z,15.53
2022-12-13T06:00:28.871Z,14.50
2022-12-13T06:02:57.457Z,14.43
2022-12-13T06:05:28.819Z,15.07
2022-12-13T06:07:57.450Z,14.63
2022-12-13T06:10:24.638Z,16.07
2022-12-13T06:12:51.217Z,14.47
2022-12-13T06:15:21.713Z,15.10
2022-12-13T06:17:48.770Z,15.00
2022-12-13T06:20:23.384Z,14.30
2022-12-13T06:22:52.390Z,14.83
2022-12-13T06:25:30.779Z,16.77
2022-12-13T06:28:00.856Z,15.20
2022-12-13T06:30:29.033Z,14.97
2022-12-13T06:32:55.984Z,15.63
2022-12-13T06:35:27.951Z,15.43
2022-12-13T06:38:01.551Z,15.73
2022-12-13T06:40:30.552Z,14.30
2022-12-13T06:42:57.699Z,14.00
2022-12-13T06:45:24.949Z,15.30
2022-12-13T06:47:51.513Z,15.07
2022-12-13T06:50:18.096Z,14.83
2022-12-13T06:52:46.648Z,15.60
2022-12-13T06:55:13.621Z,15.50
2022-12-13T06:57:40.720Z,15.93
2022-12-13T07:00:09.447Z,14.43
2022-12-13T07:02:36.376Z,14.50
2022-12-13T07:05:03.032Z,14.77
2022-12-13T07:07:29.940Z,14.77
2022-12-13T07:09:56.721Z,15.17
2022-12-13T07:12:23.540Z,14.37
2022-12-13T07:14:50.477Z,14.60
2022-12-13T07:17:32.969Z,13.97
2022-12-13T07:20:08.105Z,14.80
2022-12-13T07:22:38.801Z,14.47
2022-12-13T07:25:26.703Z,15.53
2022-12-13T07:28:02.274Z,14.53
2022-12-13T07:30:31.200Z,14.07
2022-12-13T07:32:58.155Z,15.33
2022-12-13T07:35:24.757Z,13.77
2022-12-13T07:37:51.315Z,14.10
2022-12-13T07:40:17.905Z,14.57
2022-12-13T07:42:51.258Z,15.00
2022-12-13T07:45:18.571Z,14.47
2022-12-13T07:47:45.338Z,14.23
2022-12-13T07:50:24.269Z,14.27
2022-12-13T07:52:53.378Z,13.80
2022-12-13T07:55:23.129Z,14.23
2022-12-13T07:58:07.597Z,14.40
2022-12-13T08:00:35.059Z,14.00
2022-12-13T08:03:02.173Z,15.10
2022-12-13T08:05:29.264Z,15.13
2022-12-13T08:08:08.014Z,13.80
2022-12-13T08:10:34.836Z,13.90
2022-12-13T08:13:04.943Z,13.87
2022-12-13T08:15:31.673Z,14.40
2022-12-13T08:18:00.799Z,13.73
2022-12-13T08:20:27.634Z,12.13
2022-12-13T08:22:55.748Z,12.53
2022-12-13T08:25:29.573Z,13.83
2022-12-13T08:27:56.254Z,12.53
2022-12-13T08:30:29.655Z,12.07
2022-12-13T08:32:56.204Z,13.47
2022-12-13T08:35:22.778Z,12.77
2022-12-13T08:37:49.365Z,13.30
2022-12-13T08:40:16.142Z,12.53
2022-12-13T08:42:43.757Z,13.43
2022-12-13T08:45:10.895Z,12.60
2022-12-13T08:47:41.782Z,12.43
2022-12-13T08:50:08.935Z,11.57
2022-12-13T08:52:40.355Z,12.10
2022-12-13T08:55:12.528Z,13.00
2022-12-13T08:57:40.779Z,12.23
2022-12-13T09:00:11.386Z,11.63
2022-12-13T09:02:38.895Z,10.53
2022-12-13T09:05:07.711Z,11.80
2022-12-13T09:07:40.963Z,12.10
2022-12-13T09:10:27.192Z,12.03
2022-12-13T09:13:01.443Z,11.10
2022-12-13T09:15:34.617Z,11.10
2022-12-13T09:18:04.243Z,10.40
2022-12-13T09:20:41.142Z,11.00
2022-12-13T09:23:14.273Z,9.77
2022-12-13T09:26:05.929Z,9.70
2022-12-13T09:28:34.780Z,9.53
2022-12-13T09:31:01.433Z,10.17
2022-12-13T09:33:30.507Z,9.40
2022-12-13T09:35:58.233Z,9.87
2022-12-13T09:38:27.996Z,10.17
2022-12-13T09:40:59.189Z,8.67
2022-12-13T09:43:33.141Z,10.10
2022-12-13T09:46:22.756Z,9.67
2022-12-13T09:48:53.607Z,10.33
2022-12-13T09:51:44.030Z,9.43
2022-12-13T09:54:19.590Z,10.27
2022-12-13T09:56:50.921Z,9.57
2022-12-13T09:59:32.352Z,9.97
2022-12-13T10:02:14.674Z,10.03
2022-12-13T10:04:41.558Z,8.77
2022-12-13T10:07:28.422Z,8.90
2022-12-13T10:10:00.801Z,9.30
2022-12-13T10:12:28.611Z,8.70
2022-12-13T10:15:00.058Z,8.83
2022-12-13T10:17:31.865Z,8.27
2022-12-13T10:20:07.067Z,9.53
2022-12-13T10:22:33.709Z,8.57
2022-12-13T10:25:05.404Z,8.73
2022-12-13T10:27:40.365Z,9.27
2022-12-13T10:30:12.863Z,8.50
2022-12-13T10:32:48.438Z,9.17
2022-12-13T10:35:23.991Z,8.90
2022-12-13T10:37:50.890Z,9.23
2022-12-13T10:40:33.133Z,9.70
2022-12-13T10:43:17.192Z,8.07
2022-12-13T10:45:57.132Z,8.03
2022-12-13T10:48:24.974Z,8.50
2022-12-13T10:51:20.090Z,8.50
2022-12-13T10:54:00.644Z,7.63
2022-12-13T10:56:43.567Z,7.80
2022-12-13T10:59:36.331Z,7.97
2022-12-13T11:02:31.120Z,8.13
2022-12-13T11:04:59.276Z,7.73
2022-12-13T11:07:29.970Z,8.03
2022-12-13T11:10:05.455Z,8.30
2022-12-13T11:12:33.055Z,8.13
2022-12-13T11:15:07.610Z,8.17
2022-12-13T11:17:50.226Z,8.00
2022-12-13T11:20:24.928Z,8.20
2022-12-13T11:23:02.396Z,7.90
2022-12-13T11:25:41.352Z,8.33
2022-12-13T11:28:27.647Z,8.13
2022-12-13T11:31:20.642Z,7.90
2022-12-13T11:34:10.389Z,7.20
2022-12-13T11:36:55.756Z,6.90
2022-12-13T11:39:29.198Z,6.93
2022-12-13T11:41:55.798Z,6.47
2022-12-13T11:44:34.001Z,7.47
2022-12-13T11:47:01.748Z,7.03
2022-12-13T11:49:41.625Z,7.90
2022-12-13T11:52:44.715Z,8.07
2022-12-13T11:55:44.615Z,7.07
2022-12-13T11:59:03.597Z,6.73
2022-12-13T12:01:43.944Z,7.57
2022-12-13T12:04:31.495Z,6.87
2022-12-13T12:07:31.042Z,7.07
2022-12-13T12:10:03.291Z,7.67
2022-12-13T12:12:35.425Z,6.93
2022-12-13T12:15:26.590Z,7.17
2022-12-13T12:17:55.884Z,7.53
2022-12-13T12:20:36.467Z,7.97
2022-12-13T12:23:32.075Z,7.47
2022-12-13T12:26:09.081Z,7.30
2022-12-13T12:29:06.159Z,7.90
2022-12-13T12:32:12.100Z,7.57
2022-12-13T12:35:10.408Z,7.03
2022-12-13T12:37:59.267Z,7.90
2022-12-13T12:41:07.139Z,6.97
2022-12-13T12:43:21.578Z,7.87
2022-12-13T12:46:22.870Z,7.20
2022-12-13T12:49:24.892Z,6.53
2022-12-13T12:51:59.609Z,6.77
2022-12-13T12:54:35.233Z,7.13
2022-12-13T12:57:20.162Z,7.10
2022-12-13T13:00:01.704Z,6.87
2022-12-13T13:03:05.249Z,7.27
2022-12-13T13:05:43.790Z,6.77
2022-12-13T13:08:32.852Z,6.60
2022-12-13T13:11:02.066Z,7.10
2022-12-13T13:13:50.435Z,6.47
2022-12-13T13:16:35.565Z,6.70
2022-12-13T13:19:30.894Z,6.87
2022-12-13T13:22:01.746Z,6.60
2022-12-13T13:24:30.539Z,6.80
2022-12-13T13:27:10.183Z,6.53
2022-12-13T13:29:43.099Z,6.50
2022-12-13T13:32:12.640Z,6.23
2022-12-13T13:35:36.056Z,6.10
2022-12-13T13:38:24.315Z,5.53
2022-12-13T13:40:51.518Z,5.53
2022-12-13T13:43:32.485Z,6.17
2022-12-13T13:46:10.838Z,5.47
2022-12-13T13:49:11.616Z,5.30
2022-12-13T13:55:21.202Z,5.70
2022-12-13T13:58:10.464Z,6.43
2022-12-13T14:01:15.101Z,6.23
2022-12-13T14:04:24.297Z,5.40
2022-12-13T14:07:06.310Z,5.60
2022-12-13T14:09:41.870Z,6.10
2022-12-13T14:12:30.004Z,5.77
2022-12-13T14:15:21.185Z,5.87
2022-12-13T14:18:06.289Z,5.63
2022-12-13T14:20:53.649Z,5.70
2022-12-13T14:23:53.412Z,6.07
2022-12-13T14:26:32.943Z,6.20
2022-12-13T14:29:02.732Z,6.10
2022-12-13T14:31:44.702Z,6.60
2022-12-13T14:34:31.426Z,6.33
2022-12-13T14:37:05.968Z,5.77
2022-12-13T14:39:36.766Z,6.47
2022-12-13T14:42:23.750Z,6.73
2022-12-13T14:44:50.775Z,6.87
2022-12-13T14:47:18.949Z,7.37
2022-12-13T14:49:50.699Z,6.00
2022-12-13T14:52:26.207Z,6.30
2022-12-13T14:54:59.664Z,7.27
2022-12-13T14:57:29.595Z,6.83
2022-12-13T14:59:59.130Z,6.93
2022-12-13T15:02:32.259Z,7.20
2022-12-13T15:05:01.842Z,7.10
2022-12-13T15:07:30.972Z,6.80
2022-12-13T15:10:00.821Z,6.93
2022-12-13T15:12:29.980Z,7.20
2022-12-13T15:15:02.390Z,6.50
2022-12-13T15:17:37.733Z,6.87
2022-12-13T15:20:28.720Z,7.23
2022-12-13T15:23:02.989Z,7.13
2022-12-13T15:25:33.981Z,8.37
2022-12-13T15:28:01.169Z,7.67
2022-12-13T15:30:31.954Z,7.40
2022-12-13T15:33:07.844Z,7.20
2022-12-13T15:35:37.002Z,6.90
2022-12-13T15:38:04.482Z,7.53
2022-12-13T15:40:31.556Z,6.67
2022-12-13T15:42:58.447Z,6.23
2022-12-13T15:45:31.767Z,6.33
2022-12-13T15:48:04.489Z,6.80
2022-12-13T15:50:43.738Z,6.73
2022-12-13T15:53:25.795Z,6.73
2022-12-13T15:55:52.809Z,6.87
2022-12-13T15:58:35.170Z,7.50
2022-12-13T16:01:05.434Z,7.57
2022-12-13T16:03:44.261Z,7.47
2022-12-13T16:06:18.757Z,7.60
2022-12-13T16:08:51.089Z,7.10
2022-12-13T16:11:38.429Z,7.77
2022-12-13T16:14:26.601Z,6.57
2022-12-13T16:16:55.335Z,7.33
2022-12-13T16:19:22.078Z,6.77
2022-12-13T16:21:48.663Z,7.47
2022-12-13T16:24:15.831Z,8.43
2022-12-13T16:26:48.009Z,6.80
2022-12-13T16:29:21.650Z,7.30
2022-12-13T16:31:48.928Z,8.00
2022-12-13T16:34:18.149Z,7.27
2022-12-13T16:36:47.471Z,7.73
2022-12-13T16:39:14.927Z,7.23
2022-12-13T16:41:44.854Z,7.30
2022-12-13T16:44:21.896Z,7.50
2022-12-13T16:47:12.088Z,7.47
2022-12-13T16:49:35.480Z,7.43
2022-12-13T16:52:03.071Z,8.60
2022-12-13T16:54:29.639Z,7.73
2022-12-13T16:56:56.326Z,7.80
2022-12-13T16:59:26.414Z,7.13
2022-12-13T17:01:53.504Z,6.37
2022-12-13T17:04:27.457Z,7.10
2022-12-13T17:06:54.652Z,7.07
2022-12-13T17:09:23.194Z,7.03
2022-12-13T17:11:49.763Z,6.77
2022-12-13T17:14:16.344Z,7.13
2022-12-13T17:16:43.063Z,6.73
2022-12-13T17:19:11.654Z,6.77
2022-12-13T17:21:38.292Z,6.97
2022-12-13T17:24:05.028Z,7.60
2022-12-13T17:26:32.689Z,7.27
2022-12-13T17:28:59.512Z,6.67
2022-12-13T17:31:29.261Z,7.50
2022-12-13T17:34:02.733Z,6.50
2022-12-13T17:36:31.332Z,6.80
2022-12-13T17:38:58.112Z,6.77
2022-12-13T17:41:24.894Z,7.37
2022-12-13T17:43:51.492Z,7.10
2022-12-13T17:46:19.336Z,6.10
2022-12-13T17:48:46.687Z,6.57
2022-12-13T17:51:14.184Z,7.40
2022-12-13T17:53:42.702Z,7.20
2022-12-13T17:56:12.287Z,7.00
2022-12-13T17:58:40.122Z,7.03
2022-12-13T18:01:14.681Z,6.60
2022-12-13T18:03:41.482Z,6.63
2022-12-13T18:06:09.236Z,6.47
2022-12-13T18:08:40.464Z,6.83
2022-12-13T18:11:32.225Z,6.60
2022-12-13T18:13:56.134Z,7.37
2022-12-13T18:16:28.952Z,6.90
2022-12-13T18:19:00.849Z,7.20
2022-12-13T18:21:27.718Z,6.87
2022-12-13T18:23:56.138Z,6.27
2022-12-13T18:26:24.179Z,7.00
2022-12-13T18:28:51.342Z,6.40
2022-12-13T18:31:20.626Z,6.60
2022-12-13T18:33:49.673Z,6.73
2022-12-13T18:36:18.442Z,6.20
2022-12-13T18:38:45.198Z,6.73
2022-12-13T18:41:15.373Z,7.30
2022-12-13T18:43:43.384Z,6.87
2022-12-13T18:46:11.478Z,6.83
2022-12-13T18:48:38.385Z,6.20
2022-12-13T18:51:08.671Z,5.67
2022-12-13T18:53:37.188Z,6.90
2022-12-13T18:56:06.347Z,7.00
2022-12-13T18:58:33.999Z,6.60
2022-12-13T19:01:00.722Z,6.80
2022-12-13T19:03:27.713Z,6.03
2022-12-13T19:05:58.367Z,6.77
2022-12-13T19:08:26.413Z,6.50
2022-12-13T19:10:59.435Z,5.97
2022-12-13T19:13:28.327Z,6.03
2022-12-13T19:15:59.163Z,6.57
2022-12-13T19:18:30.886Z,6.40
2022-12-13T19:20:58.727Z,6.20
2022-12-13T19:23:25.581Z,6.80
2022-12-13T19:25:52.503Z,6.33
2022-12-13T19:28:19.179Z,7.13
2022-12-13T19:30:47.723Z,6.57
2022-12-13T19:33:15.009Z,6.63
2022-12-13T19:35:45.418Z,7.43
2022-12-13T19:38:12.338Z,7.27
2022-12-13T19:40:42.987Z,6.87
2022-12-13T19:43:11.481Z,6.07
2022-12-13T19:45:38.510Z,6.87
2022-12-13T19:48:05.184Z,6.43
2022-12-13T19:50:31.971Z,6.60
2022-12-13T19:52:58.572Z,6.33
2022-12-13T19:55:25.193Z,6.23
2022-12-13T19:57:51.770Z,6.97
2022-12-13T20:00:18.447Z,6.37
2022-12-13T20:02:45.152Z,7.20
2022-12-13T20:05:11.807Z,7.00
2022-12-13T20:07:38.454Z,7.30
2022-12-13T20:10:05.867Z,7.33
2022-12-13T20:12:38.853Z,7.17
2022-12-13T20:15:08.096Z,6.73
2022-12-13T20:17:35.581Z,7.50
2022-12-13T20:20:02.755Z,7.70
2022-12-13T20:22:29.497Z,7.63
2022-12-13T20:24:56.079Z,7.40
2022-12-13T20:27:22.787Z,8.23
2022-12-13T20:29:50.098Z,7.30
2022-12-13T20:32:17.085Z,7.40
2022-12-13T20:34:43.700Z,7.80
2022-12-13T20:37:10.554Z,8.00
2022-12-13T20:39:37.137Z,7.63
2022-12-13T20:42:03.818Z,8.73
2022-12-13T20:44:30.512Z,7.93
2022-12-13T20:46:57.217Z,7.63
2022-12-13T20:49:23.843Z,7.90
2022-12-13T20:51:51.781Z,8.33
2022-12-13T20:54:19.430Z,8.10
2022-12-13T20:56:46.018Z,6.77
2022-12-13T20:59:14.292Z,7.97
2022-12-13T21:01:42.287Z,7.67
2022-12-13T21:04:10.920Z,8.13
2022-12-13T21:06:40.711Z,7.17
2022-12-13T21:09:09.329Z,7.87
2022-12-13T21:11:42.354Z,6.77
2022-12-13T21:14:22.846Z,9.00
2022-12-13T21:16:56.723Z,7.77
2022-12-13T21:19:25.603Z,7.23
2022-12-13T21:21:54.108Z,7.57
2022-12-13T21:24:22.310Z,7.43
2022-12-13T21:26:51.152Z,7.13
2022-12-13T21:29:19.078Z,7.37
2022-12-13T21:31:48.662Z,6.83
2022-12-13T21:34:16.707Z,7.93
2022-12-13T21:36:47.214Z,6.97
2022-12-13T21:39:20.141Z,7.47
2022-12-13T21:41:46.882Z,7.53
2022-12-13T21:44:15.666Z,8.07
2022-12-13T21:49:29.727Z,8.53
2022-12-13T21:51:57.092Z,7.50
2022-12-13T21:54:23.734Z,6.57
2022-12-13T21:57:08.583Z,5.97
2022-12-13T21:59:35.261Z,7.87
2022-12-13T22:02:20.417Z,8.07
2022-12-13T22:04:55.507Z,7.47
2022-12-13T22:07:31.126Z,7.20
2022-12-13T22:09:59.072Z,7.87
2022-12-13T22:12:36.066Z,7.10
2022-12-13T22:15:04.645Z,8.37
2022-12-13T22:17:35.677Z,7.07
2022-12-13T22:20:05.245Z,7.47
2022-12-13T22:22:31.990Z,7.27
2022-12-13T22:24:58.581Z,8.03
2022-12-13T22:27:25.938Z,6.13
2022-12-13T22:29:56.689Z,6.97
2022-12-13T22:32:25.226Z,6.43
2022-12-13T22:34:51.791Z,6.47
2022-12-13T22:37:18.475Z,5.47
2022-12-13T22:39:45.129Z,6.70
2022-12-13T22:42:11.725Z,8.03
2022-12-13T22:44:38.405Z,6.50
2022-12-13T22:47:05.000Z,6.43
2022-12-13T22:49:31.605Z,6.00
2022-12-13T22:51:58.247Z,5.93
2022-12-13T22:54:24.835Z,6.70
2022-12-13T22:56:52.471Z,5.97
2022-12-13T22:59:19.266Z,5.60
2022-12-13T23:01:47.244Z,6.20
2022-12-13T23:04:15.277Z,6.07
2022-12-13T23:06:41.980Z,5.63
2022-12-13T23:09:12.585Z,5.73
2022-12-13T23:11:57.957Z,7.37
2022-12-13T23:14:33.960Z,6.93
2022-12-13T23:17:01.729Z,5.40
2022-12-13T23:19:41.583Z,6.30
2022-12-13T23:22:15.871Z,6.70
2022-12-13T23:24:42.731Z,6.57
2022-12-13T23:27:09.560Z,6.27
2022-12-13T23:29:36.223Z,6.00
2022-12-13T23:32:02.817Z,6.27
2022-12-13T23:34:29.415Z,6.47
2022-12-13T23:36:55.982Z,6.00
2022-12-13T23:39:22.589Z,5.67
2022-12-13T23:41:49.185Z,6.27
2022-12-13T23:44:15.969Z,6.60
2022-12-13T23:46:48.110Z,6.00
2022-12-13T23:49:16.113Z,5.90
2022-12-13T23:51:42.773Z,5.00
2022-12-13T23:54:14.609Z,5.87
2022-12-13T23:56:41.283Z,6.90
2022-12-13T23:59:07.879Z,6.07
